createdAt,value
2018-03-11T00:02:05.292Z,12.50
2018-03-11T00:05:06.495Z,12.50
2018-03-11T00:08:07.701Z,12.60
2018-03-11T00:11:09.641Z,12.60
2018-03-11T00:14:10.833Z,12.60
2018-03-11T00:17:12.781Z,12.60
2018-03-11T00:20:14.001Z,12.60
2018-03-11T00:23:15.232Z,12.60
2018-03-11T00:26:17.217Z,12.50
2018-03-11T00:29:19.186Z,12.60
2018-03-11T00:32:20.365Z,12.60
2018-03-11T00:35:22.309Z,12.40
2018-03-11T00:38:23.513Z,12.40
2018-03-11T00:41:24.714Z,12.50
2018-03-11T00:44:25.921Z,12.40
2018-03-11T00:47:27.896Z,12.40
2018-03-11T00:50:29.841Z,12.40
2018-03-11T00:53:31.046Z,12.40
2018-03-11T00:56:33.011Z,12.30
2018-03-11T00:59:34.257Z,12.30
2018-03-11T01:02:35.474Z,12.30
2018-03-11T01:05:36.681Z,12.30
2018-03-11T01:08:37.899Z,12.30
2018-03-11T01:11:39.105Z,12.30
2018-03-11T01:14:40.300Z,12.20
2018-03-11T01:17:42.260Z,12.10
2018-03-11T01:20:43.462Z,12.10
2018-03-11T01:23:44.688Z,12.10
2018-03-11T01:26:45.911Z,12.00
2018-03-11T01:29:47.122Z,11.90
2018-03-11T01:32:49.067Z,11.90
2018-03-11T01:35:51.008Z,11.90
2018-03-11T01:38:52.220Z,11.90
2018-03-11T01:41:53.436Z,12.00
2018-03-11T01:44:54.633Z,11.90
2018-03-11T01:47:56.579Z,12.00
2018-03-11T01:50:57.812Z,12.00
2018-03-11T01:54:06.722Z,11.90
2018-03-11T01:57:07.970Z,11.90
2018-03-11T02:00:09.182Z,11.90
2018-03-11T02:03:11.168Z,11.80
2018-03-11T02:06:13.154Z,11.70
2018-03-11T02:09:14.365Z,11.70
2018-03-11T02:12:15.600Z,11.60
2018-03-11T02:15:16.802Z,11.60
2018-03-11T02:18:18.024Z,11.60
2018-03-11T02:21:19.255Z,11.40
2018-03-11T02:24:21.212Z,11.30
2018-03-11T02:27:22.413Z,11.30
2018-03-11T02:30:23.639Z,11.30
2018-03-11T02:33:24.830Z,11.30
2018-03-11T02:36:26.029Z,11.30
2018-03-11T02:39:27.236Z,11.40
2018-03-11T02:42:29.201Z,11.30
2018-03-11T02:45:30.395Z,11.30
2018-03-11T02:48:31.602Z,11.30
2018-03-11T02:51:32.828Z,11.10
2018-03-11T02:54:34.034Z,11.00
2018-03-11T02:57:35.233Z,10.90
2018-03-11T03:00:37.194Z,10.90
2018-03-11T03:03:38.403Z,10.80
2018-03-11T03:06:39.615Z,10.90
2018-03-11T03:09:40.840Z,10.90
2018-03-11T03:12:42.048Z,10.90
2018-03-11T03:15:44.016Z,11.00
2018-03-11T03:18:45.221Z,11.00
2018-03-11T03:21:46.460Z,10.90
2018-03-11T03:24:48.389Z,10.90
2018-03-11T03:27:56.632Z,10.90
2018-03-11T03:30:57.869Z,10.90
2018-03-11T03:33:59.146Z,11.00
2018-03-11T03:37:00.389Z,11.10
2018-03-11T03:40:01.646Z,10.90
2018-03-11T03:43:02.917Z,11.00
2018-03-11T03:46:04.206Z,11.10
2018-03-11T03:49:05.437Z,11.10
2018-03-11T03:52:06.712Z,11.20
2018-03-11T03:55:07.969Z,11.20
2018-03-11T03:58:09.224Z,11.30
2018-03-11T04:01:10.472Z,11.20
2018-03-11T04:04:11.741Z,11.20
2018-03-11T04:07:13.008Z,11.10
2018-03-11T04:10:14.248Z,11.10
2018-03-11T04:13:16.251Z,11.20
2018-03-11T04:16:17.472Z,11.20
2018-03-11T04:19:18.716Z,11.20
2018-03-11T04:22:19.960Z,11.10
2018-03-11T04:25:21.231Z,11.20
2018-03-11T04:28:22.464Z,11.20
2018-03-11T04:31:23.720Z,11.10
2018-03-11T04:34:25.003Z,11.10
2018-03-11T04:37:26.226Z,11.10
2018-03-11T04:40:28.208Z,11.20
2018-03-11T04:43:30.178Z,11.20
2018-03-11T04:46:31.467Z,11.20
2018-03-11T04:49:33.480Z,11.20
2018-03-11T04:52:34.724Z,11.20
2018-03-11T04:55:35.988Z,11.10
2018-03-11T04:58:37.213Z,11.00
2018-03-11T05:01:38.453Z,11.00
2018-03-11T05:04:39.675Z,11.00
2018-03-11T05:07:40.913Z,11.10
2018-03-11T05:10:42.910Z,11.00
2018-03-11T05:13:44.158Z,11.00
2018-03-11T05:16:46.127Z,11.10
2018-03-11T05:19:48.109Z,11.00
2018-03-11T05:22:49.380Z,11.00
2018-03-11T05:25:51.354Z,11.20
2018-03-11T05:28:53.316Z,11.20
2018-03-11T05:31:54.534Z,11.20
2018-03-11T05:34:55.738Z,11.00
2018-03-11T05:37:56.953Z,11.00
2018-03-11T05:40:58.177Z,10.90
2018-03-11T05:43:59.378Z,11.10
2018-03-11T05:47:00.587Z,11.10
2018-03-11T05:50:01.801Z,11.10
2018-03-11T05:53:03.010Z,11.10
2018-03-11T05:56:04.244Z,11.10
2018-03-11T05:59:05.448Z,11.00
2018-03-11T06:02:06.661Z,11.00
2018-03-11T06:05:07.892Z,11.00
2018-03-11T06:08:09.837Z,11.00
2018-03-11T06:11:11.096Z,11.00
2018-03-11T06:14:12.288Z,11.10
2018-03-11T06:17:14.248Z,11.20
2018-03-11T06:20:15.465Z,11.20
2018-03-11T06:23:16.678Z,11.20
2018-03-11T06:26:17.881Z,11.30
2018-03-11T06:29:19.109Z,11.30
2018-03-11T06:32:20.322Z,11.20
2018-03-11T06:35:21.545Z,11.30
2018-03-11T06:38:23.512Z,11.40
2018-03-11T06:41:24.710Z,11.40
2018-03-11T06:44:25.910Z,11.40
2018-03-11T06:47:27.877Z,11.50
2018-03-11T06:50:29.108Z,11.40
2018-03-11T06:53:30.334Z,11.40
2018-03-11T06:56:31.549Z,11.40
2018-03-11T06:59:32.769Z,11.40
2018-03-11T07:02:34.004Z,11.50
2018-03-11T07:05:35.202Z,11.60
2018-03-11T07:08:37.185Z,11.70
2018-03-11T07:11:39.165Z,11.70
2018-03-11T07:14:41.128Z,11.70
2018-03-11T07:17:42.318Z,11.70
2018-03-11T07:20:43.529Z,11.70
2018-03-11T07:23:44.748Z,11.90
2018-03-11T07:26:45.988Z,11.80
2018-03-11T07:29:47.941Z,12.00
2018-03-11T07:32:49.156Z,11.90
2018-03-11T07:35:50.380Z,11.90
2018-03-11T07:38:51.595Z,11.90
2018-03-11T07:41:52.816Z,11.90
2018-03-11T07:44:54.769Z,11.90
2018-03-11T07:47:55.966Z,11.90
2018-03-11T07:50:57.929Z,11.90
2018-03-11T07:53:59.858Z,12.00
2018-03-11T07:57:01.074Z,11.90
2018-03-11T08:00:03.101Z,12.10
2018-03-11T08:03:04.321Z,12.00
2018-03-11T08:06:06.266Z,12.20
2018-03-11T08:09:07.449Z,12.20
2018-03-11T08:12:08.651Z,12.20
2018-03-11T08:15:09.860Z,12.20
2018-03-11T08:18:11.079Z,12.30
2018-03-11T08:21:12.284Z,12.30
2018-03-11T08:24:13.489Z,12.30
2018-03-11T08:27:14.704Z,12.40
2018-03-11T08:30:15.920Z,12.30
2018-03-11T08:33:17.140Z,12.40
2018-03-11T08:39:26.368Z,12.50
2018-03-11T08:42:27.600Z,12.50
2018-03-11T08:45:29.534Z,12.60
2018-03-11T08:48:30.760Z,12.60
2018-03-11T08:51:31.947Z,12.60
2018-03-11T08:54:33.166Z,12.70
2018-03-11T08:57:35.116Z,12.90
2018-03-11T09:00:36.341Z,12.90
2018-03-11T09:03:37.533Z,13.20
2018-03-11T09:06:38.741Z,13.20
2018-03-11T09:09:40.696Z,13.30
2018-03-11T09:12:41.914Z,13.30
2018-03-11T09:15:43.136Z,13.30
2018-03-11T09:18:45.091Z,13.30
2018-03-11T09:21:46.210Z,13.30
2018-03-11T09:24:47.401Z,13.30
2018-03-11T09:27:48.616Z,13.30
2018-03-11T09:30:49.862Z,13.30
2018-03-11T09:33:51.820Z,13.20
2018-03-11T09:36:53.030Z,13.20
2018-03-11T09:39:54.221Z,13.10
2018-03-11T09:42:55.432Z,13.10
2018-03-11T09:45:57.366Z,13.10
2018-03-11T09:48:59.340Z,13.20
2018-03-11T09:52:01.321Z,13.10
2018-03-11T09:55:02.552Z,13.20
2018-03-11T09:58:03.760Z,13.20
2018-03-11T10:01:04.977Z,13.20
2018-03-11T10:04:06.224Z,13.20
2018-03-11T10:07:08.215Z,13.40
2018-03-11T10:10:09.416Z,13.30
2018-03-11T10:13:10.633Z,13.40
2018-03-11T10:16:12.623Z,13.60
2018-03-11T10:19:13.833Z,13.60
2018-03-11T10:22:15.035Z,13.70
2018-03-11T10:25:16.988Z,13.90
2018-03-11T10:28:18.220Z,13.90
2018-03-11T10:31:19.449Z,13.90
2018-03-11T10:34:20.658Z,13.90
2018-03-11T10:37:22.633Z,14.10
2018-03-11T10:40:24.582Z,14.20
2018-03-11T10:43:25.849Z,14.20
2018-03-11T10:46:27.023Z,14.20
2018-03-11T10:49:28.205Z,14.10
2018-03-11T10:52:29.417Z,14.10
2018-03-11T10:55:30.632Z,14.10
2018-03-11T10:58:31.818Z,14.10
2018-03-11T11:01:39.061Z,14.20
2018-03-11T11:04:42.231Z,14.30
2018-03-11T11:07:44.198Z,14.40
2018-03-11T11:10:45.404Z,14.40
2018-03-11T11:13:46.624Z,14.50
2018-03-11T11:16:47.838Z,14.50
2018-03-11T11:19:49.044Z,14.50
2018-03-11T11:22:50.233Z,14.50
2018-03-11T11:25:52.167Z,14.40
2018-03-11T11:28:53.388Z,14.40
2018-03-11T11:31:54.625Z,14.40
2018-03-11T11:34:56.583Z,14.30
2018-03-11T11:37:57.816Z,14.30
2018-03-11T11:40:59.030Z,14.30
2018-03-11T11:44:00.974Z,14.20
2018-03-11T11:47:02.220Z,14.20
2018-03-11T11:50:03.459Z,14.20
2018-03-11T11:53:04.656Z,14.20
2018-03-11T11:56:05.877Z,14.10
2018-03-11T11:59:07.078Z,14.10
2018-03-11T12:02:08.300Z,14.00
2018-03-11T12:05:09.524Z,14.00
2018-03-11T12:08:10.713Z,14.00
2018-03-11T12:11:12.653Z,13.90
2018-03-11T12:14:13.871Z,13.90
2018-03-11T12:17:15.065Z,14.00
2018-03-11T12:20:16.288Z,14.00
2018-03-11T12:23:17.492Z,14.10
2018-03-11T12:26:18.708Z,14.30
2018-03-11T12:29:20.654Z,14.30
2018-03-11T12:32:21.879Z,14.30
2018-03-11T12:35:23.101Z,14.30
2018-03-11T12:38:25.034Z,14.40
2018-03-11T12:41:26.233Z,14.40
2018-03-11T12:44:27.439Z,14.40
2018-03-11T12:47:28.687Z,14.40
2018-03-11T12:50:29.905Z,14.50
2018-03-11T12:53:31.104Z,14.50
2018-03-11T12:56:33.032Z,14.60
2018-03-11T12:59:34.232Z,14.60
2018-03-11T13:02:36.179Z,14.70
2018-03-11T13:05:37.368Z,14.60
2018-03-11T13:08:39.299Z,14.70
2018-03-11T13:11:40.501Z,14.70
2018-03-11T13:14:41.677Z,14.80
2018-03-11T13:17:43.602Z,14.70
2018-03-11T13:21:03.311Z,14.70
2018-03-11T13:24:04.523Z,14.70
2018-03-11T13:27:06.463Z,14.80
2018-03-11T13:30:07.660Z,14.80
2018-03-11T13:33:28.183Z,14.80
2018-03-11T13:36:29.379Z,14.80
2018-03-11T13:39:49.003Z,14.80
2018-03-11T13:42:50.216Z,14.80
2018-03-11T13:46:09.818Z,14.70
2018-03-11T13:49:11.014Z,14.70
2018-03-11T13:55:59.863Z,14.60
2018-03-11T13:59:01.821Z,14.60
2018-03-11T14:02:03.028Z,14.60
2018-03-11T14:05:04.250Z,14.60
2018-03-11T14:08:05.493Z,14.60
2018-03-11T14:11:06.716Z,14.60
2018-03-11T14:14:07.944Z,14.60
2018-03-11T14:17:09.932Z,14.60
2018-03-11T14:20:11.884Z,14.60
2018-03-11T14:23:13.107Z,14.50
2018-03-11T14:26:14.322Z,14.60
2018-03-11T14:29:15.518Z,14.60
2018-03-11T14:32:16.748Z,14.60
2018-03-11T14:35:17.984Z,14.60
2018-03-11T14:38:19.201Z,14.60
2018-03-11T14:41:20.412Z,14.60
2018-03-11T14:44:21.614Z,14.60
2018-03-11T14:47:23.563Z,14.70
2018-03-11T14:50:24.784Z,14.70
2018-03-11T14:53:26.006Z,14.70
2018-03-11T14:56:27.247Z,14.70
2018-03-11T14:59:28.479Z,14.60
2018-03-11T15:02:29.680Z,14.60
2018-03-11T15:05:31.141Z,14.70
2018-03-11T15:08:32.473Z,14.70
2018-03-11T15:11:33.694Z,14.70
2018-03-11T15:14:35.684Z,14.70
2018-03-11T15:17:37.677Z,14.70
2018-03-11T15:20:38.897Z,14.70
2018-03-11T15:23:40.105Z,14.70
2018-03-11T15:26:41.418Z,14.60
2018-03-11T15:29:42.645Z,14.60
2018-03-11T15:32:44.366Z,14.60
2018-03-11T15:35:45.680Z,14.90
2018-03-11T15:38:47.166Z,14.80
2018-03-11T15:41:48.397Z,14.80
2018-03-11T15:44:49.910Z,14.70
2018-03-11T15:47:51.164Z,14.70
2018-03-11T15:50:52.590Z,14.70
2018-03-11T15:53:53.834Z,14.60
2018-03-11T15:56:55.851Z,14.70
2018-03-11T15:59:57.081Z,14.70
2018-03-11T16:02:59.513Z,14.60
2018-03-11T16:06:01.106Z,14.60
2018-03-11T16:09:02.625Z,14.60
2018-03-11T16:12:04.981Z,14.50
2018-03-11T16:15:07.424Z,14.50
2018-03-11T16:18:09.200Z,14.50
2018-03-11T16:21:10.574Z,14.50
2018-03-11T16:24:12.168Z,14.60
2018-03-11T16:27:13.676Z,14.50
2018-03-11T16:30:15.792Z,14.50
2018-03-11T16:33:17.488Z,14.50
2018-03-11T16:36:19.153Z,14.40
2018-03-11T16:39:20.372Z,14.40
2018-03-11T16:42:22.118Z,14.40
2018-03-11T16:45:24.221Z,14.40
2018-03-11T16:48:26.596Z,14.40
2018-03-11T16:51:28.080Z,14.40
2018-03-11T16:54:29.436Z,14.30
2018-03-11T16:57:30.832Z,14.20
2018-03-11T17:00:32.318Z,14.20
2018-03-11T17:03:33.907Z,14.20
2018-03-11T17:06:35.511Z,14.20
2018-03-11T17:09:36.902Z,14.10
2018-03-11T17:12:38.252Z,14.00
2018-03-11T17:15:40.674Z,13.90
2018-03-11T17:18:43.134Z,13.80
2018-03-11T17:21:45.125Z,13.80
2018-03-11T17:24:47.073Z,13.70
2018-03-11T17:27:48.312Z,13.70
2018-03-11T17:30:49.545Z,13.70
2018-03-11T17:33:50.767Z,13.70
2018-03-11T17:36:52.124Z,13.70
2018-03-11T17:39:53.426Z,13.40
2018-03-11T17:42:55.391Z,13.30
2018-03-11T17:45:57.426Z,13.20
2018-03-11T17:48:58.645Z,13.20
2018-03-11T17:52:00.658Z,13.20
2018-03-11T17:55:01.920Z,13.20
2018-03-11T17:58:03.164Z,13.00
2018-03-11T18:01:04.412Z,13.00
2018-03-11T18:04:06.438Z,12.80
2018-03-11T18:07:07.670Z,12.80
2018-03-11T18:10:08.901Z,12.70
2018-03-11T18:13:10.189Z,12.70
2018-03-11T18:16:12.149Z,12.80
2018-03-11T18:19:13.380Z,12.80
2018-03-11T18:22:14.590Z,12.60
2018-03-11T18:25:16.552Z,12.60
2018-03-11T18:28:17.784Z,12.60
2018-03-11T18:31:18.989Z,12.60
2018-03-11T18:34:21.019Z,12.70
2018-03-11T18:37:22.206Z,12.70
2018-03-11T18:40:23.461Z,12.60
2018-03-11T18:43:24.677Z,12.50
2018-03-11T18:46:25.890Z,12.50
2018-03-11T18:49:27.085Z,12.50
2018-03-11T18:52:29.034Z,12.50
2018-03-11T18:55:30.252Z,12.50
2018-03-11T18:58:31.465Z,12.40
2018-03-11T19:01:32.856Z,12.50
2018-03-11T19:04:35.186Z,12.30
2018-03-11T19:07:36.690Z,12.30
2018-03-11T19:10:38.344Z,12.30
2018-03-11T19:13:39.605Z,12.30
2018-03-11T19:16:40.846Z,12.30
2018-03-11T19:19:42.411Z,12.20
2018-03-11T19:22:43.977Z,12.30
2018-03-11T19:25:45.775Z,12.30
2018-03-11T19:28:47.170Z,12.30
2018-03-11T19:31:49.157Z,12.10
2018-03-11T19:34:50.361Z,12.10
2018-03-11T19:37:51.589Z,12.10
2018-03-11T19:40:53.673Z,12.20
2018-03-11T19:43:56.056Z,12.20
2018-03-11T19:46:58.424Z,12.30
2018-03-11T19:50:00.152Z,12.20
2018-03-11T19:53:01.475Z,12.20
2018-03-11T19:56:02.870Z,12.00
2018-03-11T19:59:04.321Z,12.00
2018-03-11T20:02:06.240Z,12.00
2018-03-11T20:05:08.056Z,11.90
2018-03-11T20:08:09.301Z,11.90
2018-03-11T20:11:11.717Z,12.00
2018-03-11T20:14:13.460Z,12.00
2018-03-11T20:17:15.055Z,12.10
2018-03-11T20:20:17.112Z,11.90
2018-03-11T20:23:18.372Z,11.90
2018-03-11T20:26:19.591Z,11.90
2018-03-11T20:29:22.065Z,11.80
2018-03-11T20:32:24.048Z,11.80
2018-03-11T20:35:25.558Z,11.80
2018-03-11T20:38:27.176Z,11.80
2018-03-11T20:41:28.486Z,11.80
2018-03-11T20:44:30.182Z,11.80
2018-03-11T20:47:31.414Z,11.80
2018-03-11T20:50:33.447Z,11.60
2018-03-11T20:53:35.118Z,11.60
2018-03-11T20:56:36.414Z,11.60
2018-03-11T20:59:37.645Z,11.60
2018-03-11T21:02:39.830Z,11.70
2018-03-11T21:05:41.182Z,11.70
2018-03-11T21:08:42.431Z,11.70
2018-03-11T21:11:44.060Z,11.70
2018-03-11T21:14:45.724Z,11.70
2018-03-11T21:17:47.310Z,11.70
2018-03-11T21:20:49.286Z,11.50
2018-03-11T21:23:51.476Z,11.50
2018-03-11T21:26:52.841Z,11.50
2018-03-11T21:29:54.152Z,11.50
2018-03-11T21:32:55.361Z,11.50
2018-03-11T21:35:57.335Z,11.40
2018-03-11T21:38:58.597Z,11.40
2018-03-11T21:41:59.941Z,11.40
2018-03-11T21:45:01.192Z,11.30
2018-03-11T21:48:02.420Z,11.30
2018-03-11T21:51:03.716Z,11.40
2018-03-11T21:54:04.928Z,11.30
2018-03-11T21:57:07.072Z,11.30
2018-03-11T22:00:08.301Z,11.30
2018-03-11T22:03:09.549Z,11.40
2018-03-11T22:06:11.486Z,11.20
2018-03-11T22:09:12.686Z,11.20
2018-03-11T22:12:14.626Z,11.20
2018-03-11T22:15:15.883Z,11.10
2018-03-11T22:18:17.223Z,11.30
2018-03-11T22:21:18.490Z,11.30
2018-03-11T22:24:19.771Z,11.30
2018-03-11T22:27:21.033Z,11.30
2018-03-11T22:30:22.302Z,11.30
2018-03-11T22:33:23.624Z,11.40
2018-03-11T22:36:24.945Z,11.40
2018-03-11T22:39:26.240Z,11.30
2018-03-11T22:42:28.557Z,11.10
2018-03-11T22:45:29.772Z,11.00
2018-03-11T22:48:31.058Z,11.00
2018-03-11T22:51:34.855Z,11.10
2018-03-11T22:54:37.604Z,11.00
2018-03-11T22:57:38.848Z,10.90
2018-03-11T23:00:40.401Z,11.00
2018-03-11T23:03:41.920Z,11.00
2018-03-11T23:06:43.302Z,11.00
2018-03-11T23:09:45.696Z,11.10
2018-03-11T23:12:47.448Z,10.90
2018-03-11T23:15:48.774Z,10.80
2018-03-11T23:19:10.369Z,11.00
2018-03-11T23:22:11.608Z,10.90
2018-03-11T23:25:12.805Z,10.90
2018-03-11T23:28:14.028Z,10.80
2018-03-11T23:31:15.266Z,10.70
2018-03-11T23:34:17.207Z,10.50
2018-03-11T23:37:18.549Z,10.50
2018-03-11T23:40:20.297Z,10.60
2018-03-11T23:43:21.503Z,10.80
2018-03-11T23:46:22.717Z,10.70
2018-03-11T23:49:24.005Z,10.50
2018-03-11T23:52:25.235Z,10.50
2018-03-11T23:55:27.201Z,10.60
2018-03-11T23:58:29.144Z,10.50
